createdAt,value
2018-07-15T00:00:09.496Z,19.70
2018-07-15T00:02:36.691Z,19.70
2018-07-15T00:05:04.244Z,19.60
2018-07-15T00:07:31.425Z,19.60
2018-07-15T00:09:58.628Z,19.50
2018-07-15T00:12:25.944Z,19.50
2018-07-15T00:14:53.129Z,19.40
2018-07-15T00:17:20.318Z,19.40
2018-07-15T00:19:47.517Z,19.50
2018-07-15T00:22:14.697Z,19.50
2018-07-15T00:24:41.902Z,19.60
2018-07-15T00:27:09.117Z,19.50
2018-07-15T00:29:36.328Z,19.40
2018-07-15T00:32:03.517Z,19.20
2018-07-15T00:34:30.702Z,19.10
2018-07-15T00:36:57.923Z,18.90
2018-07-15T00:39:25.113Z,18.80
2018-07-15T00:41:52.505Z,18.70
2018-07-15T00:44:19.693Z,18.70
2018-07-15T00:46:46.868Z,18.60
2018-07-15T00:49:14.064Z,18.60
2018-07-15T00:51:41.564Z,18.50
2018-07-15T00:54:08.757Z,18.50
2018-07-15T00:56:35.950Z,18.40
2018-07-15T00:59:03.151Z,18.40
2018-07-15T01:01:30.344Z,18.40
2018-07-15T01:03:57.529Z,18.40
2018-07-15T01:06:24.713Z,18.50
2018-07-15T01:08:51.885Z,18.60
2018-07-15T01:11:19.152Z,18.60
2018-07-15T01:13:46.340Z,18.70
2018-07-15T01:16:13.516Z,18.70
2018-07-15T01:18:40.712Z,18.70
2018-07-15T01:21:07.897Z,18.70
2018-07-15T01:23:35.125Z,18.70
2018-07-15T01:26:02.320Z,18.60
2018-07-15T01:28:29.492Z,18.60
2018-07-15T01:30:56.688Z,18.60
2018-07-15T01:33:23.921Z,18.50
2018-07-15T01:35:51.157Z,18.40
2018-07-15T01:38:18.389Z,18.50
2018-07-15T01:40:45.643Z,18.40
2018-07-15T01:43:12.897Z,18.30
2018-07-15T01:45:40.138Z,18.40
2018-07-15T01:48:07.371Z,18.30
2018-07-15T01:53:01.921Z,18.50
2018-07-15T01:55:29.169Z,18.50
2018-07-15T01:57:56.417Z,18.40
2018-07-15T02:00:23.701Z,18.30
2018-07-15T02:02:50.950Z,18.30
2018-07-15T02:05:18.177Z,18.20
2018-07-15T02:07:45.422Z,18.30
2018-07-15T02:10:12.683Z,18.20
2018-07-15T02:12:39.926Z,18.20
2018-07-15T02:15:07.222Z,18.20
2018-07-15T02:17:34.477Z,18.10
2018-07-15T02:20:01.737Z,18.10
2018-07-15T02:22:29.018Z,18.10
2018-07-15T02:24:56.257Z,18.10
2018-07-15T02:27:23.502Z,18.10
2018-07-15T02:29:50.821Z,18.00
2018-07-15T02:32:18.078Z,18.00
2018-07-15T02:34:45.319Z,18.10
2018-07-15T02:37:12.559Z,18.10
2018-07-15T02:39:39.796Z,18.00
2018-07-15T02:42:07.056Z,17.90
2018-07-15T02:44:34.326Z,17.80
2018-07-15T02:47:01.621Z,17.80
2018-07-15T02:49:28.856Z,17.60
2018-07-15T02:51:56.097Z,17.50
2018-07-15T02:54:23.362Z,17.50
2018-07-15T02:56:50.690Z,17.40
2018-07-15T02:59:17.925Z,17.40
2018-07-15T03:01:45.293Z,17.40
2018-07-15T03:04:12.528Z,17.40
2018-07-15T03:06:39.766Z,17.30
2018-07-15T03:09:08.519Z,17.20
2018-07-15T03:11:35.972Z,17.20
2018-07-15T03:14:03.388Z,17.10
2018-07-15T03:16:30.649Z,17.10
2018-07-15T03:18:57.881Z,17.10
2018-07-15T03:21:25.137Z,17.10
2018-07-15T03:23:52.398Z,17.20
2018-07-15T03:26:19.664Z,17.10
2018-07-15T03:28:46.906Z,17.10
2018-07-15T03:31:14.162Z,17.00
2018-07-15T03:33:42.285Z,16.90
2018-07-15T03:36:09.614Z,16.90
2018-07-15T03:38:36.881Z,16.90
2018-07-15T03:41:04.132Z,16.90
2018-07-15T03:43:31.390Z,16.90
2018-07-15T03:45:58.642Z,16.90
2018-07-15T03:48:25.864Z,16.80
2018-07-15T03:50:53.116Z,16.90
2018-07-15T03:53:20.346Z,17.00
2018-07-15T03:55:47.580Z,17.10
2018-07-15T03:58:14.804Z,17.30
2018-07-15T04:00:42.046Z,17.30
2018-07-15T04:03:09.298Z,17.50
2018-07-15T04:05:36.528Z,17.50
2018-07-15T04:08:03.781Z,17.50
2018-07-15T04:10:31.028Z,17.50
2018-07-15T04:12:58.280Z,17.60
2018-07-15T04:15:25.504Z,17.70
2018-07-15T04:18:02.190Z,17.80
2018-07-15T04:20:29.490Z,17.90
2018-07-15T04:22:56.730Z,18.00
2018-07-15T04:25:23.967Z,18.10
2018-07-15T04:27:51.194Z,18.10
2018-07-15T04:30:18.485Z,18.10
2018-07-15T04:32:45.717Z,18.20
2018-07-15T04:35:12.961Z,18.20
2018-07-15T04:37:40.197Z,18.20
2018-07-15T04:40:07.454Z,18.30
2018-07-15T04:42:34.689Z,18.30
2018-07-15T04:45:02.017Z,18.30
2018-07-15T04:47:29.197Z,18.40
2018-07-15T04:49:56.428Z,18.50
2018-07-15T04:52:23.669Z,18.60
2018-07-15T04:54:50.909Z,18.60
2018-07-15T04:57:18.133Z,18.70
2018-07-15T04:59:45.374Z,18.70
2018-07-15T05:02:12.597Z,18.70
2018-07-15T05:04:39.837Z,18.70
2018-07-15T05:07:07.133Z,18.70
2018-07-15T05:09:34.333Z,18.60
2018-07-15T05:12:01.569Z,18.60
2018-07-15T05:14:28.805Z,18.70
2018-07-15T05:16:56.042Z,18.70
2018-07-15T05:19:23.273Z,18.70
2018-07-15T05:24:17.932Z,18.70
2018-07-15T05:26:45.206Z,18.70
2018-07-15T05:29:12.461Z,18.70
2018-07-15T05:31:39.694Z,18.70
2018-07-15T05:34:06.989Z,18.80
2018-07-15T05:36:34.232Z,18.80
2018-07-15T05:41:28.857Z,19.00
2018-07-15T05:43:56.102Z,19.00
2018-07-15T05:46:23.347Z,19.10
2018-07-15T05:48:50.577Z,19.00
2018-07-15T05:51:17.822Z,19.00
2018-07-15T05:53:45.057Z,19.10
2018-07-15T05:56:12.317Z,19.10
2018-07-15T05:58:39.581Z,19.30
2018-07-15T06:01:07.133Z,19.40
2018-07-15T06:03:34.510Z,19.50
2018-07-15T06:06:01.624Z,19.80
2018-07-15T06:08:28.856Z,19.90
2018-07-15T06:10:56.098Z,20.10
2018-07-15T06:13:23.354Z,20.30
2018-07-15T06:15:50.605Z,20.50
2018-07-15T06:18:17.898Z,20.60
2018-07-15T06:20:45.199Z,20.80
2018-07-15T06:23:12.550Z,21.00
2018-07-15T06:25:39.941Z,21.20
2018-07-15T06:28:07.283Z,21.20
2018-07-15T06:30:34.558Z,21.30
2018-07-15T06:33:01.947Z,21.60
2018-07-15T06:35:29.272Z,21.80
2018-07-15T06:37:56.521Z,21.90
2018-07-15T06:40:23.806Z,22.00
2018-07-15T06:42:51.042Z,22.30
2018-07-15T06:45:18.313Z,22.60
2018-07-15T06:47:45.581Z,22.70
2018-07-15T06:50:12.934Z,22.60
2018-07-15T06:52:40.182Z,22.60
2018-07-15T06:55:07.415Z,23.00
2018-07-15T06:57:34.654Z,23.20
2018-07-15T07:00:02.079Z,23.50
2018-07-15T07:02:29.320Z,23.90
2018-07-15T07:04:56.569Z,24.80
2018-07-15T07:07:23.936Z,26.20
2018-07-15T07:09:51.063Z,27.40
2018-07-15T07:12:18.315Z,28.60
2018-07-15T07:14:45.554Z,29.30
2018-07-15T07:17:12.793Z,29.50
2018-07-15T07:19:40.042Z,29.70
2018-07-15T07:22:07.321Z,29.70
2018-07-15T07:24:34.550Z,29.50
2018-07-15T07:27:01.810Z,29.60
2018-07-15T07:29:29.092Z,29.40
2018-07-15T07:31:56.336Z,28.70
2018-07-15T07:34:23.577Z,28.30
2018-07-15T07:36:50.993Z,27.70
2018-07-15T07:39:18.239Z,27.20
2018-07-15T07:41:45.492Z,26.80
2018-07-15T07:44:12.816Z,27.30
2018-07-15T07:49:07.416Z,29.00
2018-07-15T07:51:34.649Z,29.70
2018-07-15T07:54:01.887Z,29.80
2018-07-15T07:58:56.365Z,29.80
2018-07-15T08:01:23.624Z,30.20
2018-07-15T08:03:50.878Z,30.00
2018-07-15T08:06:18.180Z,29.90
2018-07-15T08:08:45.447Z,30.20
2018-07-15T08:11:12.792Z,30.30
2018-07-15T08:13:40.078Z,29.70
2018-07-15T08:16:07.371Z,29.60
2018-07-15T08:18:34.742Z,29.40
2018-07-15T08:21:02.000Z,29.20
2018-07-15T08:23:29.243Z,28.90
2018-07-15T08:25:56.597Z,28.60
2018-07-15T08:28:24.210Z,28.20
2018-07-15T08:31:03.436Z,27.70
2018-07-15T08:33:30.693Z,27.30
2018-07-15T08:35:57.969Z,27.20
2018-07-15T08:40:52.488Z,26.90
2018-07-15T08:43:19.814Z,27.30
2018-07-15T08:45:47.085Z,27.10
2018-07-15T08:48:14.441Z,27.00
2018-07-15T08:50:41.700Z,27.20
2018-07-15T08:53:08.995Z,27.90
2018-07-15T08:55:36.275Z,28.90
2018-07-15T08:58:04.034Z,30.30
2018-07-15T09:00:31.297Z,30.90
2018-07-15T09:02:58.541Z,31.30
2018-07-15T09:05:25.821Z,31.20
2018-07-15T09:07:53.102Z,31.00
2018-07-15T09:10:20.373Z,30.40
2018-07-15T09:12:47.818Z,29.80
2018-07-15T09:15:15.071Z,29.70
2018-07-15T09:17:42.340Z,30.00
2018-07-15T09:20:09.594Z,31.50
2018-07-15T09:22:36.849Z,31.90
2018-07-15T09:25:04.124Z,32.80
2018-07-15T09:27:31.377Z,32.70
2018-07-15T09:29:58.689Z,32.70
2018-07-15T09:32:25.958Z,31.70
2018-07-15T09:34:53.225Z,32.50
2018-07-15T09:37:20.501Z,32.70
2018-07-15T09:39:47.790Z,33.20
2018-07-15T09:42:15.062Z,33.60
2018-07-15T09:44:42.412Z,34.00
2018-07-15T09:47:09.662Z,33.90
2018-07-15T09:49:36.922Z,34.80
2018-07-15T09:52:04.201Z,35.30
2018-07-15T09:54:31.479Z,36.10
2018-07-15T09:56:58.734Z,36.20
2018-07-15T09:59:26.019Z,35.40
2018-07-15T10:01:53.299Z,35.10
2018-07-15T10:04:20.566Z,35.30
2018-07-15T10:06:47.826Z,35.20
2018-07-15T10:09:15.074Z,35.40
2018-07-15T10:11:42.317Z,35.20
2018-07-15T10:14:09.664Z,35.50
2018-07-15T10:16:36.909Z,35.30
2018-07-15T10:19:04.306Z,35.20
2018-07-15T10:21:31.570Z,35.30
2018-07-15T10:23:58.821Z,35.20
2018-07-15T10:26:26.097Z,35.50
2018-07-15T10:28:53.353Z,35.70
2018-07-15T10:31:20.613Z,36.50
2018-07-15T10:33:47.858Z,37.10
2018-07-15T10:36:15.157Z,36.40
2018-07-15T10:38:42.411Z,35.30
2018-07-15T10:41:09.673Z,35.50
2018-07-15T10:43:37.057Z,34.50
2018-07-15T10:46:04.329Z,33.70
2018-07-15T10:48:31.589Z,33.00
2018-07-15T10:50:58.933Z,32.90
2018-07-15T10:53:26.205Z,32.70
2018-07-15T10:55:53.501Z,32.40
2018-07-15T10:58:20.740Z,32.30
2018-07-15T11:00:48.164Z,31.80
2018-07-15T11:03:15.414Z,31.50
2018-07-15T11:05:42.713Z,30.90
2018-07-15T11:08:09.966Z,30.40
2018-07-15T11:10:37.211Z,30.40
2018-07-15T11:13:04.505Z,30.50
2018-07-15T11:15:31.758Z,30.20
2018-07-15T11:17:59.004Z,29.70
2018-07-15T11:20:26.266Z,29.50
2018-07-15T11:22:53.602Z,29.50
2018-07-15T11:25:20.957Z,29.40
2018-07-15T11:27:48.229Z,28.90
2018-07-15T11:30:15.469Z,28.80
2018-07-15T11:32:42.721Z,28.40
2018-07-15T11:35:09.965Z,28.20
2018-07-15T11:37:37.215Z,27.70
2018-07-15T11:40:04.529Z,27.80
2018-07-15T11:42:31.789Z,27.40
2018-07-15T11:44:59.070Z,27.20
2018-07-15T11:47:26.345Z,27.10
2018-07-15T11:49:53.602Z,27.00
2018-07-15T11:52:20.922Z,27.00
2018-07-15T11:54:48.170Z,27.00
2018-07-15T11:57:15.460Z,26.90
2018-07-15T11:59:42.705Z,26.60
2018-07-15T12:02:10.408Z,26.40
2018-07-15T12:04:37.812Z,26.10
2018-07-15T12:07:05.110Z,26.10
2018-07-15T12:09:32.544Z,26.10
2018-07-15T12:12:00.101Z,26.00
2018-07-15T12:14:27.370Z,25.80
2018-07-15T12:16:54.665Z,25.60
2018-07-15T12:21:49.190Z,25.30
2018-07-15T12:24:17.077Z,25.10
2018-07-15T12:26:44.696Z,24.90
2018-07-15T12:29:11.979Z,24.80
2018-07-15T12:31:39.268Z,24.60
2018-07-15T12:34:07.550Z,24.50
2018-07-15T12:36:36.758Z,24.30
2018-07-15T12:39:07.212Z,24.10
2018-07-15T12:41:37.066Z,23.90
2018-07-15T12:44:06.582Z,23.70
2018-07-15T12:46:33.830Z,23.60
2018-07-15T12:49:01.165Z,23.40
2018-07-15T12:51:28.646Z,23.30
2018-07-15T12:53:55.946Z,23.20
2018-07-15T12:56:23.201Z,23.10
2018-07-15T12:58:50.524Z,22.80
2018-07-15T13:01:17.779Z,22.20
2018-07-15T13:03:45.047Z,21.60
2018-07-15T13:06:12.305Z,21.20
2018-07-15T13:08:39.603Z,21.30
2018-07-15T13:11:06.923Z,21.70
2018-07-15T13:13:34.217Z,22.70
2018-07-15T13:16:01.458Z,24.10
2018-07-15T13:18:28.762Z,25.00
2018-07-15T13:20:55.991Z,25.80
2018-07-15T13:23:23.241Z,26.60
2018-07-15T13:25:50.525Z,27.20
2018-07-15T13:28:17.778Z,26.80
2018-07-15T13:30:45.049Z,26.50
2018-07-15T13:33:12.309Z,26.80
2018-07-15T13:35:39.606Z,26.80
2018-07-15T13:38:06.966Z,27.10
2018-07-15T13:40:34.262Z,28.20
2018-07-15T13:43:01.505Z,29.60
2018-07-15T13:45:28.777Z,30.80
2018-07-15T13:47:56.194Z,30.80
2018-07-15T13:50:23.534Z,30.10
2018-07-15T13:52:50.796Z,29.60
2018-07-15T13:55:18.137Z,29.50
2018-07-15T13:57:45.417Z,29.20
2018-07-15T14:00:12.706Z,28.50
2018-07-15T14:02:39.966Z,27.50
2018-07-15T14:05:07.525Z,26.70
2018-07-15T14:07:34.757Z,26.10
2018-07-15T14:10:02.153Z,25.70
2018-07-15T14:12:29.517Z,25.50
2018-07-15T14:14:56.902Z,25.20
2018-07-15T14:17:24.166Z,25.00
2018-07-15T14:19:51.624Z,24.70
2018-07-15T14:22:18.878Z,24.70
2018-07-15T14:24:46.116Z,24.70
2018-07-15T14:27:13.378Z,24.80
2018-07-15T14:29:40.649Z,25.10
2018-07-15T14:32:08.008Z,25.30
2018-07-15T14:34:35.267Z,25.40
2018-07-15T14:37:02.554Z,25.50
2018-07-15T14:39:33.420Z,25.60
2018-07-15T14:42:00.690Z,25.50
2018-07-15T14:44:27.977Z,25.40
2018-07-15T14:46:55.339Z,25.50
2018-07-15T14:49:22.585Z,25.70
2018-07-15T14:51:49.848Z,25.90
2018-07-15T14:54:17.207Z,26.00
2018-07-15T14:56:45.142Z,26.70
2018-07-15T14:59:12.404Z,27.30
2018-07-15T15:01:39.754Z,27.80
2018-07-15T15:04:07.009Z,27.90
2018-07-15T15:06:34.264Z,28.50
2018-07-15T15:09:01.720Z,29.10
2018-07-15T15:11:29.040Z,29.10
2018-07-15T15:13:56.340Z,28.90
2018-07-15T15:16:23.732Z,28.30
2018-07-15T15:18:50.981Z,27.70
2018-07-15T15:21:18.256Z,27.30
2018-07-15T15:23:45.511Z,27.40
2018-07-15T15:26:12.774Z,27.60
2018-07-15T15:28:40.221Z,27.80
2018-07-15T15:31:07.617Z,28.10
2018-07-15T15:33:34.917Z,28.10
2018-07-15T15:36:02.240Z,27.80
2018-07-15T15:38:29.930Z,27.80
2018-07-15T15:40:57.163Z,27.70
2018-07-15T15:43:24.421Z,27.60
2018-07-15T15:45:51.664Z,27.30
2018-07-15T15:48:18.924Z,26.90
2018-07-15T15:50:46.161Z,26.60
2018-07-15T15:53:13.560Z,26.00
2018-07-15T15:55:40.823Z,25.50
2018-07-15T15:58:08.130Z,25.30
2018-07-15T16:00:35.338Z,24.80
2018-07-15T16:05:29.926Z,24.60
2018-07-15T16:07:57.184Z,24.60
2018-07-15T16:10:24.469Z,24.60
2018-07-15T16:12:51.733Z,24.60
2018-07-15T16:15:18.989Z,24.40
2018-07-15T16:17:46.246Z,24.20
2018-07-15T16:20:13.527Z,24.10
2018-07-15T16:22:40.886Z,24.30
2018-07-15T16:25:08.138Z,24.30
2018-07-15T16:30:28.904Z,24.40
2018-07-15T16:32:56.154Z,24.40
2018-07-15T16:35:23.646Z,24.30
2018-07-15T16:37:51.029Z,24.20
2018-07-15T16:40:18.302Z,24.10
2018-07-15T16:45:12.932Z,23.90
2018-07-15T16:50:07.547Z,23.60
2018-07-15T16:52:34.816Z,23.50
2018-07-15T16:55:02.156Z,23.40
2018-07-15T16:57:29.401Z,23.30
2018-07-15T16:59:57.121Z,23.20
2018-07-15T17:02:24.376Z,23.10
2018-07-15T17:04:51.633Z,23.10
2018-07-15T17:07:18.895Z,22.90
2018-07-15T17:09:46.289Z,22.80
2018-07-15T17:12:13.650Z,22.70
2018-07-15T17:14:40.913Z,22.80
2018-07-15T17:17:08.285Z,22.80
2018-07-15T17:19:35.550Z,22.90
2018-07-15T17:22:02.806Z,23.30
2018-07-15T17:24:30.065Z,23.60
2018-07-15T17:26:57.324Z,24.00
2018-07-15T17:29:24.583Z,24.20
2018-07-15T17:31:52.060Z,24.00
2018-07-15T17:34:19.319Z,23.70
2018-07-15T17:36:46.594Z,23.30
2018-07-15T17:39:13.845Z,22.90
2018-07-15T17:41:41.120Z,22.70
2018-07-15T17:44:08.365Z,22.40
2018-07-15T17:46:35.598Z,22.20
2018-07-15T17:49:02.842Z,22.10
2018-07-15T17:51:30.102Z,22.00
2018-07-15T17:53:58.232Z,21.90
2018-07-15T17:56:25.492Z,21.90
2018-07-15T17:58:52.797Z,21.80
2018-07-15T18:01:20.037Z,21.70
2018-07-15T18:03:47.297Z,21.60
2018-07-15T18:06:14.536Z,21.50
2018-07-15T18:08:41.941Z,21.50
2018-07-15T18:11:09.250Z,21.40
2018-07-15T18:13:36.503Z,21.30
2018-07-15T18:16:03.922Z,21.20
2018-07-15T18:18:31.326Z,21.10
2018-07-15T18:20:58.633Z,21.10
2018-07-15T18:23:25.870Z,21.10
2018-07-15T18:25:53.113Z,21.00
2018-07-15T18:28:20.590Z,21.00
2018-07-15T18:30:47.838Z,20.90
2018-07-15T18:33:15.100Z,20.80
2018-07-15T18:35:42.325Z,20.80
2018-07-15T18:38:09.575Z,20.70
2018-07-15T18:40:36.818Z,20.60
2018-07-15T18:43:04.115Z,20.50
2018-07-15T18:45:31.352Z,20.40
2018-07-15T18:47:58.581Z,20.30
2018-07-15T18:50:25.822Z,20.10
2018-07-15T18:52:53.161Z,20.00
2018-07-15T18:55:20.712Z,19.90
2018-07-15T18:57:47.959Z,19.80
2018-07-15T19:00:15.277Z,19.80
2018-07-15T19:02:42.510Z,20.00
2018-07-15T19:05:09.810Z,20.00
2018-07-15T19:07:37.064Z,20.00
2018-07-15T19:10:04.331Z,20.00
2018-07-15T19:12:31.653Z,19.90
2018-07-15T19:14:58.852Z,19.80
2018-07-15T19:17:26.085Z,19.70
2018-07-15T19:19:53.313Z,19.50
2018-07-15T19:22:20.735Z,19.30
2018-07-15T19:24:48.066Z,19.10
2018-07-15T19:27:15.297Z,19.00
2018-07-15T19:29:42.547Z,18.80
2018-07-15T19:32:09.787Z,18.60
2018-07-15T19:34:37.141Z,18.40
2018-07-15T19:41:59.125Z,18.00
2018-07-15T19:44:26.404Z,17.80
2018-07-15T19:46:53.641Z,17.70
2018-07-15T19:49:20.885Z,17.50
2018-07-15T19:51:48.174Z,17.40
2018-07-15T19:54:15.454Z,17.30
2018-07-15T19:56:42.705Z,17.10
2018-07-15T19:59:09.998Z,17.00
2018-07-15T20:01:37.238Z,16.90
2018-07-15T20:04:04.685Z,16.90
2018-07-15T20:06:31.962Z,16.90
2018-07-15T20:08:59.245Z,16.80
2018-07-15T20:11:26.508Z,16.80
2018-07-15T20:13:53.785Z,16.70
2018-07-15T20:16:21.101Z,16.70
2018-07-15T20:18:48.349Z,16.80
2018-07-15T20:21:15.647Z,16.90
2018-07-15T20:23:42.881Z,17.00
2018-07-15T20:26:10.125Z,17.00
2018-07-15T20:28:37.358Z,17.10
2018-07-15T20:31:04.622Z,17.10
2018-07-15T20:33:31.878Z,17.10
2018-07-15T20:35:59.114Z,17.10
2018-07-15T20:38:26.482Z,17.00
2018-07-15T20:40:53.714Z,17.00
2018-07-15T20:43:20.990Z,17.00
2018-07-15T20:45:48.245Z,17.10
2018-07-15T20:50:42.708Z,17.20
2018-07-15T20:53:09.986Z,17.30
2018-07-15T20:55:37.386Z,17.30
2018-07-15T20:58:04.657Z,17.40
2018-07-15T21:00:31.910Z,17.50
2018-07-15T21:02:59.273Z,17.50
2018-07-15T21:05:26.551Z,17.50
2018-07-15T21:07:53.801Z,17.50
2018-07-15T21:10:21.074Z,17.40
2018-07-15T21:12:48.329Z,17.40
2018-07-15T21:15:15.598Z,17.40
2018-07-15T21:17:42.831Z,17.30
2018-07-15T21:20:10.080Z,17.30
2018-07-15T21:22:37.316Z,17.30
2018-07-15T21:25:04.573Z,17.40
2018-07-15T21:27:31.810Z,17.40
2018-07-15T21:29:59.050Z,17.50
2018-07-15T21:32:26.282Z,17.60
2018-07-15T21:34:53.829Z,17.70
2018-07-15T21:37:21.129Z,17.70
2018-07-15T21:39:48.379Z,17.80
2018-07-15T21:42:15.618Z,17.80
2018-07-15T21:44:42.865Z,17.80
2018-07-15T21:47:10.081Z,17.80
2018-07-15T21:49:37.319Z,17.80
2018-07-15T21:52:04.557Z,17.70
2018-07-15T21:54:31.811Z,17.70
2018-07-15T21:56:59.045Z,17.80
2018-07-15T21:59:26.298Z,17.90
2018-07-15T22:01:53.559Z,18.00
2018-07-15T22:04:20.825Z,18.10
2018-07-15T22:06:59.658Z,18.00
2018-07-15T22:09:49.733Z,18.00
2018-07-15T22:12:16.985Z,18.00
2018-07-15T22:14:44.377Z,17.90
2018-07-15T22:17:11.610Z,17.80
2018-07-15T22:19:38.862Z,17.80
2018-07-15T22:22:06.151Z,17.80
2018-07-15T22:24:33.414Z,17.70
2018-07-15T22:27:00.655Z,17.70
2018-07-15T22:29:27.891Z,17.70
2018-07-15T22:31:55.117Z,17.70
2018-07-15T22:34:22.349Z,17.70
2018-07-15T22:36:49.575Z,17.80
2018-07-15T22:39:16.830Z,17.80
2018-07-15T22:41:44.101Z,17.90
2018-07-15T22:46:38.571Z,17.90
2018-07-15T22:49:05.805Z,17.90
2018-07-15T22:51:33.093Z,17.90
2018-07-15T22:54:00.329Z,17.90
2018-07-15T22:56:27.557Z,18.00
2018-07-15T22:58:54.821Z,18.00
2018-07-15T23:01:22.089Z,18.00
2018-07-15T23:03:49.325Z,18.00
2018-07-15T23:06:18.014Z,17.90
2018-07-15T23:08:45.247Z,17.90
2018-07-15T23:11:12.490Z,17.90
2018-07-15T23:13:39.757Z,17.80
2018-07-15T23:16:07.314Z,17.70
2018-07-15T23:18:34.561Z,17.70
2018-07-15T23:21:01.855Z,17.60
2018-07-15T23:23:29.114Z,17.60
2018-07-15T23:25:56.354Z,17.60
2018-07-15T23:28:23.609Z,17.60
2018-07-15T23:30:50.873Z,17.60
2018-07-15T23:33:18.128Z,17.60
2018-07-15T23:35:45.378Z,17.60
2018-07-15T23:38:12.613Z,17.60
2018-07-15T23:40:39.879Z,17.70
2018-07-15T23:43:07.122Z,17.70
2018-07-15T23:45:35.211Z,17.80
2018-07-15T23:48:02.488Z,17.80
2018-07-15T23:52:57.096Z,17.90
2018-07-15T23:55:24.569Z,17.90
2018-07-15T23:57:52.046Z,18.00
